createdAt,value
2023-11-24T00:01:43.829Z,96374.91
2023-11-24T00:04:29.550Z,96364.34
2023-11-24T00:07:18.470Z,96373.28
2023-11-24T00:10:05.993Z,96357.47
2023-11-24T00:12:51.761Z,96364.59
2023-11-24T00:15:38.204Z,96354.81
2023-11-24T00:18:24.149Z,96350.56
2023-11-24T00:21:10.487Z,96347.41
2023-11-24T00:23:55.829Z,96344.19
2023-11-24T00:26:41.309Z,96342.25
2023-11-24T00:29:27.630Z,96339.25
2023-11-24T00:32:13.451Z,96344.00
2023-11-24T00:34:58.897Z,96345.25
2023-11-24T00:37:45.241Z,96332.88
2023-11-24T00:40:32.059Z,96327.59
2023-11-24T00:43:17.649Z,96324.16
2023-11-24T00:46:03.450Z,96322.56
2023-11-24T00:48:49.304Z,96308.13
2023-11-24T00:51:35.011Z,96309.81
2023-11-24T00:54:20.533Z,96320.38
2023-11-24T00:57:06.431Z,96305.56
2023-11-24T00:59:52.106Z,96325.88
2023-11-24T01:02:38.262Z,96330.94
2023-11-24T01:05:23.998Z,96315.09
2023-11-24T01:08:09.406Z,96301.66
2023-11-24T01:10:57.622Z,96290.09
2023-11-24T01:13:43.354Z,96292.50
2023-11-24T01:16:29.911Z,96290.66
2023-11-24T01:19:18.679Z,96294.09
2023-11-24T01:22:04.629Z,96285.13
2023-11-24T01:24:49.973Z,96272.97
2023-11-24T01:27:35.498Z,96265.88
2023-11-24T01:30:20.979Z,96260.84
2023-11-24T01:33:06.730Z,96258.22
2023-11-24T01:35:53.920Z,96249.72
2023-11-24T01:38:39.710Z,96241.00
2023-11-24T01:41:25.263Z,96234.13
2023-11-24T01:44:10.728Z,96239.41
2023-11-24T01:46:56.627Z,96223.03
2023-11-24T01:49:42.357Z,96216.38
2023-11-24T01:52:28.708Z,96234.84
2023-11-24T01:55:14.764Z,96267.53
2023-11-24T01:58:00.864Z,96229.81
2023-11-24T02:00:47.017Z,96216.84
2023-11-24T02:03:32.649Z,96207.56
2023-11-24T02:06:19.253Z,96186.13
2023-11-24T02:09:05.249Z,96193.84
2023-11-24T02:11:51.505Z,96195.09
2023-11-24T02:14:37.298Z,96193.50
2023-11-24T02:17:22.677Z,96191.09
2023-11-24T02:20:12.510Z,96193.97
2023-11-24T02:22:58.105Z,96188.69
2023-11-24T02:25:44.613Z,96173.91
2023-11-24T02:28:30.197Z,96180.44
2023-11-24T02:31:16.106Z,96184.59
2023-11-24T02:34:05.269Z,96157.34
2023-11-24T02:36:50.992Z,96150.00
2023-11-24T02:39:36.430Z,96141.06
2023-11-24T02:42:22.061Z,96141.84
2023-11-24T02:45:08.450Z,96138.97
2023-11-24T02:47:54.335Z,96135.28
2023-11-24T02:50:40.166Z,96145.06
2023-11-24T02:53:25.559Z,96130.03
2023-11-24T02:56:11.606Z,96112.13
2023-11-24T02:58:57.221Z,96115.34
2023-11-24T03:01:42.933Z,96119.56
2023-11-24T03:04:29.135Z,96123.00
2023-11-24T03:07:15.509Z,96121.97
2023-11-24T03:10:01.313Z,96132.28
2023-11-24T03:12:47.535Z,96133.06
2023-11-24T03:15:33.219Z,96129.66
2023-11-24T03:18:18.958Z,96139.16
2023-11-24T03:21:04.770Z,96144.19
2023-11-24T03:23:50.191Z,96142.91
2023-11-24T03:26:35.928Z,96124.44
2023-11-24T03:29:21.591Z,96126.84
2023-11-24T03:32:08.107Z,96115.25
2023-11-24T03:34:53.709Z,96202.03
2023-11-24T03:37:39.227Z,96231.97
2023-11-24T03:40:25.251Z,96235.41
2023-11-24T03:43:11.132Z,96244.13
2023-11-24T03:45:57.717Z,96258.53
2023-11-24T03:48:43.632Z,96242.94
2023-11-24T03:51:28.981Z,96254.69
2023-11-24T03:54:14.604Z,96250.81
2023-11-24T03:57:00.303Z,96263.84
2023-11-24T03:59:46.277Z,96269.03
2023-11-24T04:02:32.039Z,96269.53
2023-11-24T04:05:17.771Z,96264.53
2023-11-24T04:08:03.523Z,96247.81
2023-11-24T04:10:48.952Z,96238.38
2023-11-24T04:13:34.227Z,96242.00
2023-11-24T04:16:20.856Z,96226.28
2023-11-24T04:19:07.234Z,96246.81
2023-11-24T04:21:52.715Z,96225.63
2023-11-24T04:24:40.008Z,96226.19
2023-11-24T04:27:25.658Z,96250.19
2023-11-24T04:30:11.941Z,96248.75
2023-11-24T04:32:58.505Z,96240.81
2023-11-24T04:35:43.931Z,96245.41
2023-11-24T04:38:29.859Z,96244.78
2023-11-24T04:41:15.843Z,96232.00
2023-11-24T04:44:01.582Z,96237.59
2023-11-24T04:46:47.585Z,96227.28
2023-11-24T04:49:33.333Z,96222.41
2023-11-24T04:52:19.138Z,96204.38
2023-11-24T04:55:07.724Z,96211.81
2023-11-24T04:57:53.546Z,96225.31
2023-11-24T05:00:39.433Z,96208.06
2023-11-24T05:03:25.210Z,96198.53
2023-11-24T05:06:11.442Z,96206.19
2023-11-24T05:08:57.192Z,96207.34
2023-11-24T05:11:42.596Z,96211.59
2023-11-24T05:14:28.212Z,96214.78
2023-11-24T05:17:14.017Z,96206.91
2023-11-24T05:19:59.648Z,96207.50
2023-11-24T05:22:46.075Z,96196.75
2023-11-24T05:25:31.423Z,96196.75
2023-11-24T05:28:17.096Z,96188.09
2023-11-24T05:33:52.786Z,96158.00
2023-11-24T05:36:38.348Z,96183.50
2023-11-24T05:39:24.055Z,96192.63
2023-11-24T05:42:09.922Z,96199.91
2023-11-24T05:44:55.403Z,96192.25
2023-11-24T05:47:41.568Z,96203.53
2023-11-24T05:50:27.400Z,96196.13
2023-11-24T05:53:13.026Z,96198.97
2023-11-24T05:55:58.414Z,96210.69
2023-11-24T05:58:45.281Z,96200.34
2023-11-24T06:01:31.093Z,96205.25
2023-11-24T06:04:18.470Z,96190.50
2023-11-24T06:07:05.712Z,96190.50
2023-11-24T06:09:52.026Z,96193.91
2023-11-24T06:12:37.393Z,96207.06
2023-11-24T06:15:23.994Z,96193.50
2023-11-24T06:18:10.011Z,96184.59
2023-11-24T06:20:55.403Z,96183.22
2023-11-24T06:23:41.118Z,96196.13
2023-11-24T06:26:28.861Z,96197.28
2023-11-24T06:29:15.892Z,96205.75
2023-11-24T06:32:01.397Z,96203.25
2023-11-24T06:34:46.862Z,96203.84
2023-11-24T06:37:32.393Z,96196.31
2023-11-24T06:40:18.121Z,96195.88
2023-11-24T06:43:03.833Z,96200.91
2023-11-24T06:45:49.419Z,96199.88
2023-11-24T06:48:36.527Z,96201.94
2023-11-24T06:51:22.111Z,96204.41
2023-11-24T06:54:07.979Z,96206.47
2023-11-24T06:56:53.759Z,96206.47
2023-11-24T06:59:39.395Z,96195.59
2023-11-24T07:02:25.216Z,96202.66
2023-11-24T07:05:10.760Z,96204.72
2023-11-24T07:07:56.600Z,96208.38
2023-11-24T07:10:42.078Z,96211.78
2023-11-24T07:13:28.588Z,96220.84
2023-11-24T07:16:14.812Z,96216.16
2023-11-24T07:19:01.727Z,96213.91
2023-11-24T07:21:47.666Z,96218.13
2023-11-24T07:24:33.806Z,96212.22
2023-11-24T07:27:19.167Z,96212.34
2023-11-24T07:30:05.014Z,96215.13
2023-11-24T07:32:54.145Z,96213.66
2023-11-24T07:35:40.228Z,96211.59
2023-11-24T07:38:26.542Z,96225.56
2023-11-24T07:41:12.464Z,96220.84
2023-11-24T07:43:58.844Z,96212.78
2023-11-24T07:46:44.572Z,96219.41
2023-11-24T07:49:29.919Z,96209.25
2023-11-24T07:52:16.519Z,96200.69
2023-11-24T07:55:01.875Z,96190.53
2023-11-24T07:57:47.955Z,96194.53
2023-11-24T08:00:33.966Z,96190.88
2023-11-24T08:03:20.541Z,96182.84
2023-11-24T08:06:09.309Z,96179.09
2023-11-24T08:08:57.734Z,96174.50
2023-11-24T08:11:43.471Z,96172.31
2023-11-24T08:14:30.673Z,96164.28
2023-11-24T08:17:16.201Z,96167.97
2023-11-24T08:20:01.667Z,96163.72
2023-11-24T08:22:47.105Z,96163.72
2023-11-24T08:25:32.572Z,96164.28
2023-11-24T08:28:17.838Z,96157.00
2023-11-24T08:31:03.493Z,96147.72
2023-11-24T08:33:52.144Z,96148.31
2023-11-24T08:36:37.957Z,96130.47
2023-11-24T08:39:23.883Z,96134.72
2023-11-24T08:42:10.877Z,96135.31
2023-11-24T08:44:56.134Z,96142.94
2023-11-24T08:47:44.799Z,96145.34
2023-11-24T08:50:31.016Z,96145.16
2023-11-24T08:53:16.723Z,96140.44
2023-11-24T08:56:05.217Z,96130.75
2023-11-24T08:58:51.640Z,96131.88
2023-11-24T09:01:38.127Z,96122.97
2023-11-24T09:04:24.436Z,96117.50
2023-11-24T09:07:10.506Z,96109.16
2023-11-24T09:09:56.177Z,96103.09
2023-11-24T09:12:42.029Z,96102.66
2023-11-24T09:15:27.698Z,96110.53
2023-11-24T09:18:13.482Z,96099.78
2023-11-24T09:20:59.126Z,96082.75
2023-11-24T09:23:45.461Z,96083.56
2023-11-24T09:26:30.947Z,96092.00
2023-11-24T09:29:16.414Z,96085.16
2023-11-24T09:32:02.644Z,96088.94
2023-11-24T09:34:49.747Z,96086.19
2023-11-24T09:40:24.110Z,96067.34
2023-11-24T09:43:11.509Z,96061.97
2023-11-24T09:45:57.486Z,96066.88
2023-11-24T09:48:44.614Z,96073.16
2023-11-24T09:51:30.427Z,96072.16
2023-11-24T09:54:19.206Z,96063.00
2023-11-24T09:57:05.323Z,96050.63
2023-11-24T09:59:51.395Z,96039.34
2023-11-24T10:02:38.115Z,96031.69
2023-11-24T10:05:23.639Z,96024.81
2023-11-24T10:08:09.326Z,96013.47
2023-11-24T10:11:09.769Z,96005.38
2023-11-24T10:13:56.723Z,96002.50
2023-11-24T10:16:43.343Z,96002.63
2023-11-24T10:19:29.139Z,95986.94
2023-11-24T10:22:14.610Z,95973.88
2023-11-24T10:25:00.358Z,95982.94
2023-11-24T10:27:46.208Z,95973.53
2023-11-24T10:30:33.700Z,95983.72
2023-11-24T10:33:34.896Z,95972.69
2023-11-24T10:36:26.550Z,95960.69
2023-11-24T10:39:16.957Z,95966.50
2023-11-24T10:42:04.858Z,95943.41
2023-11-24T10:44:55.818Z,95946.59
2023-11-24T10:48:01.330Z,95938.94
2023-11-24T10:51:48.529Z,95939.25
2023-11-24T10:54:40.622Z,95940.41
2023-11-24T10:57:30.020Z,95944.84
2023-11-24T11:00:16.222Z,95925.88
2023-11-24T11:03:02.192Z,95921.97
2023-11-24T11:06:10.247Z,95913.28
2023-11-24T11:09:20.567Z,95916.97
2023-11-24T11:12:20.747Z,95909.75
2023-11-24T11:15:10.609Z,95903.84
2023-11-24T11:18:15.733Z,95911.22
2023-11-24T11:21:12.530Z,95894.72
2023-11-24T11:23:59.047Z,95886.75
2023-11-24T11:26:46.668Z,95878.63
2023-11-24T11:29:33.553Z,95888.94
2023-11-24T11:32:19.124Z,95877.16
2023-11-24T11:35:04.978Z,95868.75
2023-11-24T11:37:59.265Z,95863.47
2023-11-24T11:40:45.797Z,95858.22
2023-11-24T11:43:32.251Z,95850.09
2023-11-24T11:46:17.927Z,95835.47
2023-11-24T11:49:07.520Z,95830.34
2023-11-24T11:52:02.816Z,95824.59
2023-11-24T11:54:50.941Z,95824.16
2023-11-24T11:57:36.651Z,95813.84
2023-11-24T12:00:30.099Z,95806.53
2023-11-24T12:03:19.606Z,95785.50
2023-11-24T12:06:07.100Z,95786.00
2023-11-24T12:08:53.178Z,95779.16
2023-11-24T12:11:39.068Z,95778.81
2023-11-24T12:14:24.515Z,95785.53
2023-11-24T12:17:11.652Z,95783.97
2023-11-24T12:19:57.793Z,95784.06
2023-11-24T12:22:45.190Z,95776.84
2023-11-24T12:25:31.586Z,95779.00
2023-11-24T12:28:17.490Z,95780.59
2023-11-24T12:31:04.547Z,95777.41
2023-11-24T12:33:53.414Z,95773.19
2023-11-24T12:36:38.902Z,95774.56
2023-11-24T12:39:25.263Z,95759.91
2023-11-24T12:42:12.282Z,95764.47
2023-11-24T12:45:00.970Z,95761.47
2023-11-24T12:47:46.364Z,95752.75
2023-11-24T12:50:32.107Z,95744.97
2023-11-24T12:53:21.518Z,95739.41
2023-11-24T12:56:07.606Z,95743.72
2023-11-24T12:58:53.257Z,95737.50
2023-11-24T13:01:39.060Z,95734.09
2023-11-24T13:04:25.187Z,95732.25
2023-11-24T13:07:10.876Z,95723.31
2023-11-24T13:09:56.420Z,95717.81
2023-11-24T13:12:42.852Z,95710.16
2023-11-24T13:15:29.454Z,95702.53
2023-11-24T13:18:15.230Z,95701.19
2023-11-24T13:21:01.048Z,95702.44
2023-11-24T13:23:46.959Z,95691.59
2023-11-24T13:26:32.419Z,95700.84
2023-11-24T13:29:17.759Z,95695.28
2023-11-24T13:32:04.283Z,95702.59
2023-11-24T13:34:50.214Z,95682.59
2023-11-24T13:37:36.113Z,95679.16
2023-11-24T13:40:27.550Z,95673.66
2023-11-24T13:43:14.764Z,95671.59
2023-11-24T13:46:00.789Z,95661.22
2023-11-24T13:48:48.039Z,95660.03
2023-11-24T13:51:33.506Z,95663.13
2023-11-24T13:54:19.202Z,95648.63
2023-11-24T13:57:05.128Z,95653.25
2023-11-24T13:59:50.911Z,95651.59
2023-11-24T14:02:37.606Z,95659.16
2023-11-24T14:05:23.367Z,95662.28
2023-11-24T14:08:10.676Z,95664.34
2023-11-24T14:10:56.230Z,95663.53
2023-11-24T14:13:41.820Z,95663.22
2023-11-24T14:16:29.626Z,95669.75
2023-11-24T14:19:15.622Z,95664.19
2023-11-24T14:22:05.809Z,95673.13
2023-11-24T14:24:51.924Z,95663.84
2023-11-24T14:27:40.946Z,95663.06
2023-11-24T14:30:26.504Z,95680.91
2023-11-24T14:33:12.804Z,95673.25
2023-11-24T14:35:58.681Z,95672.69
2023-11-24T14:38:49.634Z,95662.44
2023-11-24T14:41:35.097Z,95688.16
2023-11-24T14:44:21.449Z,95707.63
2023-11-24T14:47:09.863Z,95719.19
2023-11-24T14:49:55.415Z,95709.53
2023-11-24T14:52:41.091Z,95727.34
2023-11-24T14:55:30.025Z,95717.28
2023-11-24T14:58:18.402Z,95720.22
2023-11-24T15:01:06.442Z,95715.06
2023-11-24T15:03:53.819Z,95718.53
2023-11-24T15:06:40.098Z,95733.66
2023-11-24T15:09:26.534Z,95719.00
2023-11-24T15:12:12.244Z,95724.34
2023-11-24T15:15:00.033Z,95721.81
2023-11-24T15:17:45.655Z,95704.94
2023-11-24T15:20:33.826Z,95714.28
2023-11-24T15:23:20.366Z,95702.63
2023-11-24T15:26:06.470Z,95698.63
2023-11-24T15:28:55.490Z,95701.47
2023-11-24T15:31:42.768Z,95699.09
2023-11-24T15:34:30.053Z,95694.88
2023-11-24T15:37:16.113Z,95671.53
2023-11-24T15:40:02.553Z,95676.19
2023-11-24T15:42:55.470Z,95679.81
2023-11-24T15:45:42.861Z,95695.16
2023-11-24T15:48:29.773Z,95704.84
2023-11-24T15:51:19.866Z,95724.75
2023-11-24T15:54:08.396Z,95724.53
2023-11-24T15:56:55.475Z,95717.03
2023-11-24T15:59:47.281Z,95722.84
2023-11-24T16:02:33.921Z,95718.19
2023-11-24T16:05:19.474Z,95737.34
2023-11-24T16:08:09.144Z,95736.09
2023-11-24T16:10:57.631Z,95719.94
2023-11-24T16:13:46.624Z,95707.84
2023-11-24T16:16:33.038Z,95726.78
2023-11-24T16:19:18.495Z,95718.69
2023-11-24T16:22:04.384Z,95708.81
2023-11-24T16:24:52.138Z,95709.59
2023-11-24T16:27:41.966Z,95712.00
2023-11-24T16:30:28.043Z,95704.94
2023-11-24T16:33:14.045Z,95706.97
2023-11-24T16:36:02.060Z,95722.91
2023-11-24T16:38:47.284Z,95726.78
2023-11-24T16:41:34.071Z,95727.22
2023-11-24T16:44:19.658Z,95737.34
2023-11-24T16:47:07.311Z,95740.38
2023-11-24T16:49:54.208Z,95738.00
2023-11-24T16:52:47.480Z,95738.41
2023-11-24T16:55:33.902Z,95740.88
2023-11-24T16:58:20.064Z,95741.75
2023-11-24T17:01:06.236Z,95741.84
2023-11-24T17:03:52.118Z,95748.50
2023-11-24T17:06:37.603Z,95751.00
2023-11-24T17:09:23.712Z,95737.75
2023-11-24T17:12:09.335Z,95741.03
2023-11-24T17:14:55.255Z,95752.72
2023-11-24T17:17:42.219Z,95750.75
2023-11-24T17:20:28.303Z,95745.97
2023-11-24T17:23:17.612Z,95742.97
2023-11-24T17:26:03.786Z,95745.78
2023-11-24T17:28:54.083Z,95741.78
2023-11-24T17:31:42.112Z,95748.47
2023-11-24T17:34:28.089Z,95744.47
2023-11-24T17:37:13.781Z,95742.50
2023-11-24T17:40:01.591Z,95745.75
2023-11-24T17:42:46.895Z,95737.53
2023-11-24T17:45:33.700Z,95738.97
2023-11-24T17:48:20.983Z,95739.41
2023-11-24T17:51:06.676Z,95734.38
2023-11-24T17:55:50.919Z,95718.59
2023-11-24T17:58:36.585Z,95721.00
2023-11-24T18:01:24.488Z,95724.63
2023-11-24T18:04:10.367Z,95721.00
2023-11-24T18:06:56.016Z,95720.41
2023-11-24T18:09:41.518Z,95721.88
2023-11-24T18:12:30.297Z,95717.44
2023-11-24T18:15:15.953Z,95715.03
2023-11-24T18:18:02.651Z,95712.41
2023-11-24T18:20:48.838Z,95711.41
2023-11-24T18:23:35.947Z,95712.41
2023-11-24T18:26:21.454Z,95719.25
2023-11-24T18:29:07.779Z,95729.50
2023-11-24T18:31:53.862Z,95731.47
2023-11-24T18:34:40.202Z,95734.84
2023-11-24T18:37:27.019Z,95732.16
2023-11-24T18:40:14.764Z,95734.72
2023-11-24T18:43:00.304Z,95724.41
2023-11-24T18:45:45.715Z,95732.41
2023-11-24T18:48:31.264Z,95723.09
2023-11-24T18:51:16.828Z,95724.06
2023-11-24T18:54:02.369Z,95712.16
2023-11-24T18:56:48.864Z,95710.91
2023-11-24T18:59:34.428Z,95707.88
2023-11-24T19:02:20.245Z,95706.88
2023-11-24T19:05:07.065Z,95709.50
2023-11-24T19:07:52.656Z,95704.44
2023-11-24T19:10:39.142Z,95696.84
2023-11-24T19:13:25.640Z,95696.84
2023-11-24T19:16:10.988Z,95693.66
2023-11-24T19:18:56.522Z,95688.41
2023-11-24T19:21:42.245Z,95685.00
2023-11-24T19:24:28.338Z,95673.16
2023-11-24T19:27:14.126Z,95677.78
2023-11-24T19:30:03.177Z,95684.63
2023-11-24T19:32:48.931Z,95668.16
2023-11-24T19:35:34.676Z,95678.59
2023-11-24T19:38:20.509Z,95670.31
2023-11-24T19:41:06.405Z,95671.13
2023-11-24T19:43:53.110Z,95678.75
2023-11-24T19:46:39.491Z,95670.25
2023-11-24T19:49:25.295Z,95676.03
2023-11-24T19:52:11.000Z,95668.56
2023-11-24T19:54:56.946Z,95671.78
2023-11-24T19:57:42.435Z,95678.38
2023-11-24T20:00:27.826Z,95681.13
2023-11-24T20:03:13.322Z,95674.47
2023-11-24T20:05:58.862Z,95682.09
2023-11-24T20:08:46.407Z,95681.88
2023-11-24T20:11:31.755Z,95680.06
2023-11-24T20:14:18.596Z,95684.47
2023-11-24T20:17:05.207Z,95694.94
2023-11-24T20:19:51.164Z,95682.88
2023-11-24T20:22:36.887Z,95667.19
2023-11-24T20:25:22.429Z,95663.78
2023-11-24T20:28:10.715Z,95670.84
2023-11-24T20:30:57.267Z,95666.63
2023-11-24T20:33:43.665Z,95660.78
2023-11-24T20:36:29.529Z,95648.31
2023-11-24T20:39:17.197Z,95651.72
2023-11-24T20:42:02.677Z,95655.13
2023-11-24T20:44:49.135Z,95656.94
2023-11-24T20:47:35.494Z,95654.31
2023-11-24T20:50:21.063Z,95649.31
2023-11-24T20:53:06.817Z,95650.91
2023-11-24T20:55:52.459Z,95646.47
2023-11-24T20:58:39.117Z,95656.16
2023-11-24T21:01:25.675Z,95657.75
2023-11-24T21:04:13.485Z,95653.72
2023-11-24T21:07:01.321Z,95642.06
2023-11-24T21:09:47.459Z,95637.84
2023-11-24T21:12:33.344Z,95624.16
2023-11-24T21:15:19.859Z,95619.53
2023-11-24T21:18:06.598Z,95625.53
2023-11-24T21:20:54.772Z,95619.53
2023-11-24T21:23:42.098Z,95625.53
2023-11-24T21:26:29.494Z,95621.31
2023-11-24T21:29:15.185Z,95610.84
2023-11-24T21:32:00.868Z,95618.94
2023-11-24T21:34:46.701Z,95615.31
2023-11-24T21:37:32.215Z,95604.84
2023-11-24T21:40:18.948Z,95597.78
2023-11-24T21:43:04.367Z,95601.63
2023-11-24T21:45:49.831Z,95600.50
2023-11-24T21:48:36.680Z,95598.28
2023-11-24T21:51:22.644Z,95602.16
2023-11-24T21:54:08.652Z,95603.16
2023-11-24T21:56:54.351Z,95597.16
2023-11-24T21:59:40.250Z,95603.41
2023-11-24T22:02:28.623Z,95603.84
2023-11-24T22:05:14.824Z,95610.88
2023-11-24T22:08:00.336Z,95601.78
2023-11-24T22:10:46.069Z,95598.03
2023-11-24T22:13:32.280Z,95596.94
2023-11-24T22:16:17.949Z,95596.44
2023-11-24T22:19:03.741Z,95604.16
2023-11-24T22:21:49.882Z,95586.91
2023-11-24T22:24:35.446Z,95590.41
2023-11-24T22:27:24.195Z,95576.41
2023-11-24T22:30:10.748Z,95572.78
2023-11-24T22:32:56.835Z,95567.31
2023-11-24T22:35:43.608Z,95579.81
2023-11-24T22:38:29.218Z,95589.88
2023-11-24T22:41:24.338Z,95587.88
2023-11-24T22:44:09.856Z,95579.03
2023-11-24T22:46:55.916Z,95572.19
2023-11-24T22:49:41.949Z,95568.75
2023-11-24T22:52:29.026Z,95568.97
2023-11-24T22:55:15.207Z,95562.97
2023-11-24T22:58:00.812Z,95560.34
2023-11-24T23:00:47.443Z,95564.34
2023-11-24T23:03:33.340Z,95560.06
2023-11-24T23:06:19.559Z,95558.03
2023-11-24T23:09:08.034Z,95541.09
2023-11-24T23:11:53.783Z,95542.69
2023-11-24T23:14:40.181Z,95535.44
2023-11-24T23:17:26.305Z,95526.38
2023-11-24T23:20:12.378Z,95521.72
2023-11-24T23:22:59.134Z,95530.72
2023-11-24T23:25:44.585Z,95522.66
2023-11-24T23:28:30.211Z,95523.22
2023-11-24T23:31:15.909Z,95515.75
2023-11-24T23:34:01.676Z,95514.94
2023-11-24T23:36:47.336Z,95513.56
2023-11-24T23:39:36.153Z,95514.38
2023-11-24T23:42:25.592Z,95518.00
2023-11-24T23:45:11.846Z,95503.91
2023-11-24T23:47:59.254Z,95509.69
2023-11-24T23:50:44.877Z,95508.69
2023-11-24T23:53:30.508Z,95511.09
2023-11-24T23:56:16.492Z,95513.50
2023-11-24T23:59:03.690Z,95509.88
